createdAt,value
2023-02-17T00:00:31.195Z,69.70
2023-02-17T00:05:59.316Z,83.90
2023-02-17T00:11:08.374Z,68.60
2023-02-17T00:21:33.973Z,72.90
2023-02-17T00:26:41.378Z,68.50
2023-02-17T00:31:49.863Z,72.90
2023-02-17T00:36:57.340Z,69.70
2023-02-17T00:42:04.916Z,53.00
2023-02-17T00:47:12.924Z,65.10
2023-02-17T00:52:20.292Z,65.70
2023-02-17T00:57:32.549Z,72.00
2023-02-17T01:02:39.921Z,71.60
2023-02-17T01:07:47.325Z,84.00
2023-02-17T01:18:00.186Z,68.20
2023-02-17T01:23:08.447Z,75.00
2023-02-17T01:28:20.413Z,69.30
2023-02-17T01:33:27.759Z,67.50
2023-02-17T01:43:42.548Z,70.00
2023-02-17T01:48:52.052Z,75.30
2023-02-17T01:54:04.978Z,66.40
2023-02-17T01:59:19.285Z,67.90
2023-02-17T02:04:31.527Z,70.30
2023-02-17T02:09:44.863Z,76.30
2023-02-17T02:14:53.762Z,83.40
2023-02-17T02:20:30.140Z,77.80
2023-02-17T02:25:59.139Z,68.20
2023-02-17T02:31:20.094Z,52.80
2023-02-17T02:36:32.399Z,46.90
2023-02-17T02:41:43.529Z,45.60
2023-02-17T02:46:59.997Z,78.40
2023-02-17T02:52:17.574Z,61.60
2023-02-17T02:57:35.387Z,87.60
2023-02-17T03:02:54.173Z,56.10
2023-02-17T03:08:08.521Z,50.10
2023-02-17T03:13:16.442Z,50.20
2023-02-17T03:18:24.088Z,77.80
2023-02-17T03:23:31.669Z,89.20
2023-02-17T03:28:39.633Z,83.00
2023-02-17T03:33:46.781Z,78.40
2023-02-17T03:38:55.249Z,80.00
2023-02-17T03:44:02.906Z,64.50
2023-02-17T03:49:12.942Z,71.60
2023-02-17T03:54:20.632Z,71.70
2023-02-17T03:59:28.648Z,70.90
2023-02-17T04:04:36.672Z,80.60
2023-02-17T04:09:43.803Z,71.30
2023-02-17T04:19:56.963Z,55.00
2023-02-17T04:25:06.243Z,51.70
2023-02-17T04:30:16.185Z,36.90
2023-02-17T04:35:24.237Z,30.10
2023-02-17T04:40:31.797Z,53.90
2023-02-17T04:45:40.260Z,52.90
2023-02-17T04:50:47.786Z,43.80
2023-02-17T04:55:55.990Z,46.10
2023-02-17T05:01:04.444Z,57.10
2023-02-17T05:06:12.162Z,43.80
2023-02-17T05:11:19.747Z,63.30
2023-02-17T05:16:27.384Z,53.50
2023-02-17T05:21:37.414Z,43.90
2023-02-17T05:26:45.005Z,55.40
2023-02-17T05:31:54.416Z,54.40
2023-02-17T05:37:03.629Z,43.70
2023-02-17T05:42:11.881Z,48.30
2023-02-17T05:47:19.790Z,52.20
2023-02-17T05:52:27.397Z,64.20
2023-02-17T05:57:35.098Z,59.30
2023-02-17T06:02:44.817Z,61.80
2023-02-17T06:07:53.674Z,65.30
2023-02-17T06:13:01.423Z,51.30
2023-02-17T06:18:09.737Z,53.10
2023-02-17T06:23:17.278Z,62.00
2023-02-17T06:28:28.331Z,93.10
2023-02-17T06:33:35.980Z,67.00
2023-02-17T06:38:43.553Z,43.50
2023-02-17T06:43:50.959Z,59.90
2023-02-17T06:48:58.267Z,82.40
2023-02-17T06:54:07.178Z,62.50
2023-02-17T06:59:14.938Z,45.90
2023-02-17T07:04:22.254Z,52.00
2023-02-17T07:09:29.991Z,63.10
2023-02-17T07:14:41.361Z,58.60
2023-02-17T07:19:49.610Z,51.70
2023-02-17T07:25:01.401Z,65.10
2023-02-17T07:30:11.795Z,54.10
2023-02-17T07:35:20.659Z,44.30
2023-02-17T07:40:30.977Z,50.90
2023-02-17T07:45:38.727Z,51.10
2023-02-17T07:50:46.431Z,53.80
2023-02-17T07:55:53.708Z,55.10
2023-02-17T08:01:06.435Z,62.10
2023-02-17T08:06:15.128Z,55.30
2023-02-17T08:11:40.249Z,44.40
2023-02-17T08:16:47.652Z,43.20
2023-02-17T08:21:55.752Z,38.90
2023-02-17T08:27:03.864Z,44.40
2023-02-17T08:32:12.576Z,50.90
2023-02-17T08:37:20.300Z,46.90
2023-02-17T08:42:29.059Z,54.50
2023-02-17T08:47:38.260Z,53.50
2023-02-17T08:52:45.841Z,47.70
2023-02-17T08:57:54.900Z,52.80
2023-02-17T09:03:03.014Z,53.00
2023-02-17T09:08:11.360Z,44.30
2023-02-17T09:13:19.100Z,46.00
2023-02-17T09:18:26.464Z,50.90
2023-02-17T09:23:33.670Z,45.60
2023-02-17T09:28:43.226Z,48.00
2023-02-17T09:33:51.960Z,50.30
2023-02-17T09:38:59.990Z,55.40
2023-02-17T09:44:15.376Z,52.10
2023-02-17T09:49:26.015Z,44.70
2023-02-17T09:54:42.589Z,47.90
2023-02-17T09:59:53.913Z,63.00
2023-02-17T10:05:08.467Z,48.00
2023-02-17T10:10:22.266Z,57.00
2023-02-17T10:15:33.729Z,61.10
2023-02-17T10:20:46.624Z,51.00
2023-02-17T10:26:06.980Z,53.90
2023-02-17T10:31:18.872Z,60.50
2023-02-17T10:36:33.064Z,69.60
2023-02-17T10:41:43.360Z,60.80
2023-02-17T10:46:53.490Z,55.30
2023-02-17T10:52:05.228Z,58.10
2023-02-17T10:57:14.708Z,51.30
2023-02-17T11:02:24.671Z,43.40
2023-02-17T11:07:36.703Z,44.00
2023-02-17T11:12:45.432Z,40.10
2023-02-17T11:17:53.859Z,38.40
2023-02-17T11:23:08.123Z,41.50
2023-02-17T11:28:24.152Z,34.70
2023-02-17T11:33:36.716Z,36.00
2023-02-17T11:38:48.205Z,36.80
2023-02-17T11:43:58.802Z,25.90
2023-02-17T11:49:41.546Z,36.20
2023-02-17T11:55:01.220Z,33.30
2023-02-17T12:00:18.934Z,27.10
2023-02-17T12:05:33.305Z,27.00
2023-02-17T12:10:58.127Z,30.10
2023-02-17T12:16:20.417Z,26.80
2023-02-17T12:21:53.497Z,30.50
2023-02-17T12:27:12.304Z,26.20
2023-02-17T12:32:35.852Z,26.70
2023-02-17T12:37:51.996Z,23.00
2023-02-17T12:43:02.806Z,27.10
2023-02-17T12:48:17.700Z,21.60
2023-02-17T12:53:40.543Z,18.90
2023-02-17T12:58:47.996Z,21.90
2023-02-17T13:03:56.360Z,18.90
2023-02-17T13:09:16.901Z,20.80
2023-02-17T13:14:39.873Z,18.90
2023-02-17T13:19:46.960Z,48.30
2023-02-17T13:30:07.218Z,17.80
2023-02-17T13:35:34.239Z,16.20
2023-02-17T13:40:44.213Z,18.10
2023-02-17T13:45:55.032Z,18.40
2023-02-17T13:51:03.963Z,18.10
2023-02-17T13:56:13.830Z,17.50
2023-02-17T14:01:26.151Z,18.80
2023-02-17T14:06:38.005Z,16.40
2023-02-17T14:11:45.546Z,17.50
2023-02-17T14:17:04.472Z,16.60
2023-02-17T14:22:28.933Z,18.20
2023-02-17T14:27:46.661Z,18.20
2023-02-17T14:38:27.881Z,19.50
2023-02-17T14:43:35.278Z,17.50
2023-02-17T14:48:42.702Z,18.30
2023-02-17T14:53:51.451Z,13.20
2023-02-17T14:58:59.277Z,18.60
2023-02-17T15:04:09.438Z,21.30
2023-02-17T15:09:21.479Z,20.10
2023-02-17T15:14:28.748Z,18.20
2023-02-17T15:19:36.011Z,18.30
2023-02-17T15:24:43.888Z,18.30
2023-02-17T15:29:51.731Z,16.80
2023-02-17T15:34:59.535Z,19.50
2023-02-17T15:40:13.799Z,19.30
2023-02-17T15:45:22.451Z,17.50
2023-02-17T15:50:29.891Z,17.20
2023-02-17T15:55:38.484Z,17.60
2023-02-17T16:00:47.533Z,16.50
2023-02-17T16:05:54.945Z,15.10
2023-02-17T16:11:03.165Z,11.40
2023-02-17T16:16:19.500Z,16.20
2023-02-17T16:21:27.860Z,12.00
2023-02-17T16:26:38.076Z,13.50
2023-02-17T16:31:46.437Z,12.40
2023-02-17T16:36:58.707Z,13.00
2023-02-17T16:42:06.953Z,11.50
2023-02-17T16:47:22.699Z,16.10
2023-02-17T16:52:30.642Z,13.00
2023-02-17T16:57:38.489Z,13.80
2023-02-17T17:02:46.203Z,13.40
2023-02-17T17:07:56.774Z,15.50
2023-02-17T17:13:04.808Z,18.20
2023-02-17T17:18:22.140Z,13.60
2023-02-17T17:23:31.734Z,14.10
2023-02-17T17:28:41.179Z,12.10
2023-02-17T17:33:51.702Z,17.50
2023-02-17T17:39:00.629Z,15.30
2023-02-17T17:44:10.360Z,13.60
2023-02-17T17:49:18.973Z,15.50
2023-02-17T17:54:27.208Z,13.50
2023-02-17T17:59:34.409Z,13.90
2023-02-17T18:04:43.440Z,11.60
2023-02-17T18:09:50.896Z,13.30
2023-02-17T18:15:02.814Z,16.40
2023-02-17T18:20:13.478Z,17.30
2023-02-17T18:25:20.982Z,17.10
2023-02-17T18:30:28.811Z,14.60
2023-02-17T18:35:41.416Z,15.70
2023-02-17T18:40:49.030Z,17.90
2023-02-17T19:00:02.780Z,19.80
2023-02-17T19:05:13.917Z,14.50
2023-02-17T19:10:21.840Z,17.90
2023-02-17T19:15:29.633Z,15.20
2023-02-17T19:20:37.614Z,19.60
2023-02-17T19:25:44.858Z,18.50
2023-02-17T19:30:52.878Z,11.10
2023-02-17T19:36:00.512Z,14.80
2023-02-17T19:44:27.922Z,16.60
2023-02-17T19:49:35.496Z,13.20
2023-02-17T19:54:42.573Z,14.40
2023-02-17T20:04:55.395Z,15.20
2023-02-17T20:10:03.126Z,16.80
2023-02-17T20:15:11.931Z,16.70
2023-02-17T20:20:19.915Z,13.10
2023-02-17T20:25:27.058Z,18.50
2023-02-17T20:30:34.309Z,17.20
2023-02-17T20:35:41.924Z,25.70
2023-02-17T20:40:50.085Z,17.50
2023-02-17T20:45:57.784Z,19.90
2023-02-17T20:51:06.200Z,18.10
2023-02-17T20:56:18.516Z,21.30
2023-02-17T21:01:26.494Z,20.20
2023-02-17T21:06:38.201Z,23.30
2023-02-17T21:11:46.680Z,17.50
2023-02-17T21:16:54.771Z,13.20
2023-02-17T21:22:02.276Z,17.60
2023-02-17T21:27:09.850Z,15.70
2023-02-17T21:32:19.816Z,20.10
2023-02-17T21:37:27.388Z,17.50
2023-02-17T21:42:52.749Z,15.30
2023-02-17T21:48:00.654Z,15.50
2023-02-17T21:53:08.191Z,15.20
2023-02-17T21:58:15.685Z,13.80
2023-02-17T22:03:24.314Z,18.00
2023-02-17T22:08:31.718Z,11.50
2023-02-17T22:13:41.468Z,13.40
2023-02-17T22:18:48.723Z,14.00
2023-02-17T22:23:57.319Z,10.10
2023-02-17T22:29:05.266Z,13.30
2023-02-17T22:34:15.902Z,9.50
2023-02-17T22:39:23.331Z,10.40
2023-02-17T22:44:31.797Z,11.20
2023-02-17T22:49:39.438Z,12.90
2023-02-17T22:54:47.196Z,10.80
2023-02-17T22:59:55.384Z,12.40
2023-02-17T23:05:03.604Z,11.60
2023-02-17T23:10:12.898Z,12.40
2023-02-17T23:15:39.324Z,11.00
2023-02-17T23:20:48.516Z,11.30
2023-02-17T23:25:57.749Z,8.90
2023-02-17T23:31:05.306Z,9.60
2023-02-17T23:36:15.257Z,10.80
2023-02-17T23:41:22.819Z,8.00
2023-02-17T23:46:31.848Z,9.70
2023-02-17T23:51:40.000Z,10.80
2023-02-17T23:56:47.623Z,13.30
